Time;durP1;ratioP1;P1;durP2;ratioP2;P2;SDS_P1;SDS_P2;PMS_P1;PMS_P2;Temp;Humidity;BMP_temperature;BMP_pressure;BME280_temperature;BME280_humidity;BME280_pressure;Samples;Min_cycle;Max_cycle;Signal;HPM_P1;HPM_P2
2022/04/08 00:00:24;;;;;;;3.63;1.40;;;9.30;99.90;;;;;;6154466;23;20453;-84
2022/04/08 00:03:18;;;;;;;2.20;1.03;;;9.30;99.90;;;;;;6153505;23;20419;-82
2022/04/08 00:06:08;;;;;;;3.27;1.63;;;9.30;99.90;;;;;;6132129;23;20409;-84
2022/04/08 00:12:15;;;;;;;2.57;1.17;;;9.20;99.90;;;;;;6064000;23;20825;-85
2022/04/08 00:15:33;;;;;;;3.10;1.13;;;9.20;99.90;;;;;;6065149;23;20457;-84
2022/04/08 00:18:22;;;;;;;6.33;2.00;;;9.20;99.90;;;;;;6165889;23;21392;-84
2022/04/08 00:21:16;;;;;;;2.13;1.63;;;9.20;99.90;;;;;;6196934;23;20444;-84
2022/04/08 00:24:07;;;;;;;4.00;1.70;;;9.10;99.90;;;;;;6195487;23;20413;-84
2022/04/08 00:27:10;;;;;;;3.17;1.60;;;9.10;99.90;;;;;;6184456;23;20409;-85
2022/04/08 00:30:10;;;;;;;2.47;1.40;;;9.10;99.90;;;;;;6216187;23;20436;-83
2022/04/08 00:33:00;;;;;;;2.40;1.60;;;9.10;99.90;;;;;;6189960;23;20436;-85
2022/04/08 00:35:54;;;;;;;4.20;1.40;;;9.10;99.90;;;;;;6215430;23;20417;-86
2022/04/08 00:38:45;;;;;;;3.80;1.83;;;9.10;99.90;;;;;;6151806;23;20493;-83
2022/04/08 00:41:50;;;;;;;2.90;1.40;;;9.10;99.90;;;;;;6183962;23;20500;-84
2022/04/08 00:44:55;;;;;;;4.13;1.53;;;9.00;99.90;;;;;;6148348;23;20812;-83
2022/04/08 00:48:07;;;;;;;3.00;2.67;;;9.00;99.90;;;;;;6154504;23;20401;-85
2022/04/08 00:53:57;;;;;;;4.67;2.07;;;9.00;99.90;;;;;;6155579;23;20445;-83
2022/04/08 00:56:49;;;;;;;2.83;2.63;;;9.00;99.90;;;;;;6155601;23;20526;-83
2022/04/08 00:59:37;;;;;;;3.73;2.60;;;9.00;99.90;;;;;;6154683;23;20819;-85
2022/04/08 01:05:47;;;;;;;3.33;2.50;;;8.90;99.90;;;;;;6159376;23;20410;-84
2022/04/08 01:09:44;;;;;;;3.17;2.87;;;8.80;99.90;;;;;;6108907;23;21101;-83
2022/04/08 01:13:10;;;;;;;3.67;2.87;;;8.80;99.90;;;;;;5969654;24;20416;-85
2022/04/08 01:18:53;;;;;;;2.63;2.20;;;8.70;99.90;;;;;;6194715;22;20444;-83
2022/04/08 01:22:21;;;;;;;2.83;2.63;;;8.70;99.90;;;;;;6174634;23;20441;-83
2022/04/08 01:31:11;;;;;;;2.70;2.50;;;8.70;99.90;;;;;;6185788;23;20426;-84
2022/04/08 01:34:13;;;;;;;2.53;2.43;;;8.70;99.90;;;;;;6161254;23;20469;-84
2022/04/08 01:37:13;;;;;;;;;;;;;;;;;;;;;
2022/04/08 01:40:09;;;;;;;3.10;2.50;;;8.60;99.90;;;;;;6186007;23;20497;-80
2022/04/08 01:43:29;;;;;;;3.33;2.67;;;8.60;99.90;;;;;;6186215;23;20449;-84
2022/04/08 01:52:25;;;;;;;4.40;2.73;;;8.60;99.90;;;;;;6217016;23;20443;-86
2022/04/08 01:55:18;;;;;;;4.83;2.50;;;8.50;99.90;;;;;;6192774;23;20733;-84
2022/04/08 01:58:23;;;;;;;;;;;;;;;;;;;;;
2022/04/08 02:01:11;;;;;;;6.33;2.60;;;8.60;99.90;;;;;;6217575;23;20926;-84
2022/04/08 02:03:52;;;;;;;3.07;2.30;;;8.60;99.90;;;;;;6198028;23;20417;-84
2022/04/08 02:07:18;;;;;;;3.47;2.20;;;8.50;99.90;;;;;;6183631;23;20460;-85
2022/04/08 02:10:33;;;;;;;2.77;2.07;;;8.60;99.90;;;;;;6197193;23;20483;-85
2022/04/08 02:14:01;;;;;;;4.93;2.43;;;8.60;99.90;;;;;;6146651;23;20467;-84
2022/04/08 02:17:05;;;;;;;2.17;2.00;;;8.60;99.90;;;;;;6024582;23;20433;-82
2022/04/08 02:19:55;;;;;;;2.37;2.17;;;8.70;99.90;;;;;;6143461;23;20443;-83
2022/04/08 02:22:41;;;;;;;3.00;2.40;;;8.70;99.90;;;;;;6102369;23;20450;-84
2022/04/08 02:25:29;;;;;;;4.20;2.70;;;8.60;99.90;;;;;;6096704;23;20408;-84
2022/04/08 02:28:06;;;;;;;5.60;2.80;;;8.60;99.90;;;;;;6099564;23;20440;-85
2022/04/08 02:31:16;;;;;;;;;;;;;;;;;;;;;
2022/04/08 02:34:01;;;;;;;5.67;2.63;;;8.70;99.90;;;;;;6099461;23;20821;-85
2022/04/08 02:36:54;;;;;;;4.93;3.40;;;8.70;99.90;;;;;;6098123;23;20452;-84
2022/04/08 02:40:22;;;;;;;;;;;;;;;;;;;;;
2022/04/08 02:43:04;;;;;;;3.87;3.57;;;8.70;99.90;;;;;;6120655;23;20527;-84
2022/04/08 02:46:20;;;;;;;7.57;3.80;;;8.60;99.90;;;;;;6177274;23;20497;-83
2022/04/08 02:49:05;;;;;;;4.23;3.83;;;8.60;99.90;;;;;;6186795;23;21050;-83
2022/04/08 02:51:57;;;;;;;4.23;3.60;;;8.60;99.90;;;;;;6211385;23;20470;-85
2022/04/08 02:55:18;;;;;;;4.27;3.97;;;8.60;99.90;;;;;;6191899;23;20400;-85
2022/04/08 02:58:24;;;;;;;4.47;3.63;;;8.60;99.90;;;;;;6194030;23;20471;-83
2022/04/08 03:01:17;;;;;;;4.33;3.60;;;8.60;99.90;;;;;;6214644;23;20432;-85
2022/04/08 03:04:14;;;;;;;4.57;3.40;;;8.40;99.90;;;;;;6188233;23;20412;-84
2022/04/08 03:07:01;;;;;;;3.87;3.03;;;8.50;99.90;;;;;;6192918;23;20499;-84
2022/04/08 03:10:10;;;;;;;7.80;3.13;;;8.50;99.90;;;;;;6196491;23;20867;-84
2022/04/08 03:16:20;;;;;;;5.47;3.33;;;8.50;99.90;;;;;;6219122;23;20447;-82
2022/04/08 03:19:26;;;;;;;3.80;2.73;;;8.40;99.90;;;;;;6196354;23;20887;-83
2022/04/08 03:22:40;;;;;;;2.90;2.60;;;8.40;99.90;;;;;;6192947;23;20436;-84
2022/04/08 03:25:43;;;;;;;2.90;2.70;;;8.50;99.90;;;;;;6190782;23;20428;-83
2022/04/08 03:28:39;;;;;;;3.63;3.27;;;8.50;99.90;;;;;;6206437;23;20796;-83
2022/04/08 03:35:46;;;;;;;3.27;2.87;;;8.50;99.90;;;;;;6164092;23;20432;-84
2022/04/08 03:42:18;;;;;;;2.83;2.63;;;8.60;99.90;;;;;;6204652;23;20464;-83
2022/04/08 03:45:47;;;;;;;4.73;3.47;;;8.50;99.90;;;;;;6203198;22;20424;-83
2022/04/08 03:53:03;;;;;;;3.50;3.20;;;8.50;99.90;;;;;;6148761;23;20405;-82
2022/04/08 03:56:08;;;;;;;4.20;3.33;;;8.60;99.90;;;;;;6170165;23;20398;-84
2022/04/08 03:58:47;;;;;;;4.03;2.97;;;8.60;99.90;;;;;;6113698;23;20427;-85
2022/04/08 04:02:02;;;;;;;6.63;3.50;;;8.60;99.90;;;;;;6114634;23;20451;-84
2022/04/08 04:04:50;;;;;;;4.50;3.97;;;8.70;99.90;;;;;;6088146;23;20400;-84
2022/04/08 04:08:04;;;;;;;4.43;4.03;;;8.70;99.90;;;;;;6119452;22;20449;-84
2022/04/08 04:11:16;;;;;;;4.30;3.90;;;8.70;99.90;;;;;;6207206;22;20429;-83
2022/04/08 04:14:04;;;;;;;5.17;3.90;;;8.70;99.90;;;;;;6180156;22;20414;-86
2022/04/08 04:17:20;;;;;;;;;;;;;;;;;;;;;
2022/04/08 04:20:19;;;;;;;3.80;3.50;;;8.70;99.90;;;;;;6203122;22;20749;-87
2022/04/08 04:23:28;;;;;;;4.17;3.77;;;8.60;99.90;;;;;;6183020;23;20683;-87
2022/04/08 04:26:25;;;;;;;5.73;3.70;;;8.60;99.90;;;;;;6177651;23;20457;-85
2022/04/08 04:29:48;;;;;;;6.90;4.60;;;8.50;99.90;;;;;;6175267;23;20478;-85
2022/04/08 04:32:37;;;;;;;10.03;4.40;;;8.40;99.90;;;;;;6163809;23;20437;-86
2022/04/08 04:35:40;;;;;;;6.20;4.67;;;8.40;99.90;;;;;;6162224;23;20743;-86
2022/04/08 04:39:10;;;;;;;6.00;4.30;;;8.40;99.90;;;;;;6148299;23;20434;-83
2022/04/08 04:42:11;;;;;;;3.83;3.53;;;8.50;99.90;;;;;;6174383;23;20482;-83
2022/04/08 04:44:50;;;;;;;6.60;4.27;;;8.50;99.90;;;;;;6169222;23;20402;-83
2022/04/08 04:47:47;;;;;;;6.23;4.57;;;8.40;99.90;;;;;;6125413;23;20430;-82
2022/04/08 04:54:14;;;;;;;7.50;4.27;;;8.30;99.90;;;;;;6142353;23;20403;-85
2022/04/08 05:00:35;;;;;;;4.83;4.30;;;8.40;99.90;;;;;;6119280;23;20392;-84
2022/04/08 05:03:33;;;;;;;8.93;4.40;;;8.30;99.90;;;;;;6152300;23;20465;-84
2022/04/08 05:07:08;;;;;;;5.60;4.10;;;8.30;99.90;;;;;;6204746;22;20433;-82
2022/04/08 05:09:57;;;;;;;4.60;4.20;;;8.20;99.90;;;;;;6199278;23;20414;-83
2022/04/08 05:19:58;;;;;;;4.93;4.17;;;8.60;99.90;;;;;;6201506;23;20425;-84
2022/04/08 05:23:04;;;;;;;5.63;4.80;;;8.50;99.90;;;;;;6162753;23;20607;-85
2022/04/08 05:25:59;;;;;;;9.20;4.40;;;8.40;99.90;;;;;;6176861;23;20468;-86
2022/04/08 05:28:46;;;;;;;;;;;;;;;;;;;;;
2022/04/08 05:32:07;;;;;;;4.60;4.20;;;8.40;99.90;;;;;;6150019;23;20433;-84
2022/04/08 05:41:17;;;;;;;5.73;4.33;;;8.40;99.90;;;;;;6155933;23;20415;-85
2022/04/08 05:44:49;;;;;;;6.17;4.60;;;8.40;99.90;;;;;;6129581;23;20450;-85
2022/04/08 05:47:34;;;;;;;9.37;4.23;;;8.40;99.90;;;;;;6155082;23;20406;-85
2022/04/08 05:50:15;;;;;;;6.73;4.03;;;8.50;99.90;;;;;;6160257;23;20414;-85
2022/04/08 05:53:18;;;;;;;4.47;3.33;;;8.40;99.90;;;;;;6159395;23;20945;-84
2022/04/08 05:56:50;;;;;;;7.00;4.40;;;8.50;99.90;;;;;;6151072;23;20426;-85
2022/04/08 05:59:59;;;;;;;4.60;3.67;;;8.60;99.90;;;;;;6031723;23;20974;-83
2022/04/08 06:02:55;;;;;;;8.03;3.90;;;9.20;99.90;;;;;;6011889;23;20450;-83
2022/04/08 06:06:00;;;;;;;8.37;3.40;;;10.30;98.50;;;;;;6043071;23;20437;-87
2022/04/08 06:08:31;;;;;;;5.70;4.13;;;11.10;96.60;;;;;;6035469;23;20443;-84
2022/04/08 06:14:29;;;;;;;6.20;3.10;;;12.00;92.70;;;;;;5979308;24;20408;-84
2022/04/08 06:17:39;;;;;;;5.57;3.50;;;13.00;92.00;;;;;;6029757;23;20558;-84
2022/04/08 06:21:04;;;;;;;3.80;3.10;;;13.70;89.60;;;;;;6071638;23;20432;-82
2022/04/08 06:24:25;;;;;;;6.30;3.30;;;13.70;87.20;;;;;;6092235;23;20535;-84
2022/04/08 06:27:15;;;;;;;12.80;3.17;;;13.50;86.70;;;;;;6006230;23;20426;-84
2022/04/08 06:30:34;;;;;;;;;;;;;;;;;;;;;
2022/04/08 06:33:49;;;;;;;3.93;2.83;;;12.90;87.10;;;;;;6002778;23;20414;-86
2022/04/08 06:39:33;;;;;;;4.93;3.00;;;11.90;88.00;;;;;;6149725;23;20421;-84
2022/04/08 06:42:07;;;;;;;4.50;2.67;;;11.10;90.70;;;;;;6153843;23;20502;-83
2022/04/08 06:45:05;;;;;;;4.00;2.83;;;10.50;92.20;;;;;;6130126;23;21221;-85
2022/04/08 06:51:09;;;;;;;5.70;3.10;;;10.10;94.50;;;;;;6118822;23;21294;-85
2022/04/08 06:54:12;;;;;;;;;;;;;;;;;;;;;
2022/04/08 06:57:16;;;;;;;4.50;2.63;;;9.60;96.60;;;;;;6035914;23;20438;-82
2022/04/08 07:00:25;;;;;;;3.70;2.90;;;10.30;95.30;;;;;;6028507;23;20488;-82
2022/04/08 07:03:30;;;;;;;4.60;3.17;;;10.10;95.10;;;;;;6023296;23;20454;-85
2022/04/08 07:06:21;;;;;;;;;;;;;;;;;;;;;
2022/04/08 07:09:36;;;;;;;;;;;;;;;;;;;;;
2022/04/08 07:15:43;;;;;;;5.97;3.23;;;11.30;95.30;;;;;;6032308;23;20437;-85
2022/04/08 07:18:33;;;;;;;5.00;3.47;;;12.20;91.00;;;;;;6010038;23;20469;-85
2022/04/08 07:21:26;;;;;;;6.50;2.87;;;11.60;91.40;;;;;;6020262;23;20406;-82
2022/04/08 07:27:09;;;;;;;4.30;3.47;;;10.30;93.40;;;;;;5918806;24;20990;-85
2022/04/08 07:29:59;;;;;;;4.90;3.80;;;9.80;95.30;;;;;;6029586;23;20418;-82
2022/04/08 07:35:48;;;;;;;4.10;3.33;;;9.70;96.60;;;;;;6179951;23;20461;-84
2022/04/08 07:38:15;;;;;;;4.37;3.27;;;9.50;96.80;;;;;;6177619;23;20476;-85
2022/04/08 07:40:45;;;;;;;3.43;3.13;;;9.60;96.70;;;;;;6181438;23;20422;-85
2022/04/08 07:43:17;;;;;;;4.43;3.20;;;9.50;96.60;;;;;;6180518;23;20477;-83
2022/04/08 07:45:46;;;;;;;3.47;3.17;;;9.50;96.70;;;;;;6182760;23;20410;-83
2022/04/08 07:48:52;;;;;;;;;;;;;;;;;;;;;
2022/04/08 07:51:44;;;;;;;5.77;3.30;;;9.40;96.20;;;;;;6193235;23;20417;-83
2022/04/08 07:58:00;;;;;;;6.13;2.80;;;9.40;96.20;;;;;;6196529;23;20434;-86
2022/04/08 08:00:54;;;;;;;7.30;3.60;;;9.40;96.20;;;;;;6175458;23;20413;-83
2022/04/08 08:06:45;;;;;;;4.27;2.90;;;9.40;96.00;;;;;;6189295;23;20448;-83
2022/04/08 08:09:26;;;;;;;3.47;3.07;;;9.40;95.30;;;;;;6184351;23;20413;-84
2022/04/08 08:12:13;;;;;;;3.27;2.40;;;9.40;95.40;;;;;;6184654;23;20723;-84
2022/04/08 08:14:42;;;;;;;5.03;3.00;;;9.50;95.50;;;;;;6158038;23;20414;-83
2022/04/08 08:17:09;;;;;;;4.00;2.63;;;9.50;95.20;;;;;;6183432;23;20463;-83
2022/04/08 08:19:36;;;;;;;7.33;3.10;;;9.70;95.20;;;;;;6183557;23;20433;-83
2022/04/08 08:22:43;;;;;;;2.97;2.60;;;9.80;94.40;;;;;;6182986;23;20454;-83
2022/04/08 08:25:44;;;;;;;4.23;2.77;;;9.70;94.00;;;;;;6181797;23;20410;-84
2022/04/08 08:28:29;;;;;;;4.30;2.80;;;9.90;93.90;;;;;;6183266;23;20445;-85
2022/04/08 08:31:44;;;;;;;4.77;2.60;;;9.90;93.20;;;;;;6158341;23;20414;-84
2022/04/08 08:34:43;;;;;;;4.60;2.90;;;9.80;93.10;;;;;;6154731;23;20470;-83
2022/04/08 08:37:23;;;;;;;3.50;3.03;;;9.80;93.40;;;;;;6170576;23;20442;-84
2022/04/08 08:40:11;;;;;;;3.37;3.03;;;9.70;93.60;;;;;;6193425;23;20410;-84
2022/04/08 08:42:45;;;;;;;4.30;3.17;;;9.80;93.90;;;;;;6165488;23;20512;-83
2022/04/08 08:45:32;;;;;;;2.77;2.47;;;10.30;92.40;;;;;;6174311;23;20421;-85
2022/04/08 08:48:43;;;;;;;5.13;3.30;;;10.00;92.10;;;;;;6168653;23;20437;-87
2022/04/08 08:51:32;;;;;;;2.63;2.40;;;9.90;92.90;;;;;;6205051;23;20402;-85
2022/04/08 08:54:21;;;;;;;2.60;2.07;;;9.90;92.80;;;;;;6181718;23;20469;-86
2022/04/08 08:56:56;;;;;;;3.23;2.03;;;9.80;92.50;;;;;;6179814;23;20438;-84
2022/04/08 08:59:33;;;;;;;2.00;1.57;;;9.80;92.00;;;;;;6176827;23;20407;-85
2022/04/08 09:02:39;;;;;;;2.63;1.97;;;9.80;91.80;;;;;;6190473;23;20426;-84
2022/04/08 09:05:27;;;;;;;2.70;1.70;;;9.90;91.60;;;;;;6161723;23;21242;-83
2022/04/08 09:08:22;;;;;;;3.70;2.00;;;10.00;90.30;;;;;;6158094;23;20433;-85
2022/04/08 09:11:33;;;;;;;1.73;1.63;;;10.00;88.70;;;;;;6184072;23;20429;-84
2022/04/08 09:14:35;;;;;;;4.67;1.50;;;10.10;87.60;;;;;;6163487;23;20416;-83
2022/04/08 09:17:40;;;;;;;2.33;2.13;;;10.10;86.70;;;;;;6157572;23;20957;-85
2022/04/08 09:20:36;;;;;;;2.73;2.23;;;10.10;87.10;;;;;;6159945;23;20414;-84
2022/04/08 09:23:33;;;;;;;2.40;2.20;;;10.20;88.00;;;;;;6158669;23;20444;-84
2022/04/08 09:28:48;;;;;;;3.47;3.17;;;10.60;87.30;;;;;;6190378;22;20445;-83
2022/04/08 09:31:43;;;;;;;10.10;8.20;;;10.50;87.00;;;;;;6194695;23;20524;-85
2022/04/08 09:34:35;;;;;;;6.23;3.60;;;10.50;87.30;;;;;;6172128;23;20410;-85
2022/04/08 09:37:43;;;;;;;5.30;3.70;;;10.50;87.10;;;;;;6164639;23;20470;-86
2022/04/08 09:41:01;;;;;;;5.20;3.00;;;10.70;87.00;;;;;;6130983;23;20438;-83
2022/04/08 09:43:54;;;;;;;5.00;2.70;;;10.60;86.40;;;;;;6129901;23;20447;-84
2022/04/08 09:46:56;;;;;;;5.97;2.43;;;10.50;87.10;;;;;;6127460;23;20437;-84
2022/04/08 09:49:42;;;;;;;3.10;2.77;;;10.40;88.20;;;;;;6126777;23;20429;-84
2022/04/08 09:52:20;;;;;;;3.00;2.80;;;10.50;88.90;;;;;;6129867;23;20752;-83
2022/04/08 09:55:25;;;;;;;4.10;3.57;;;10.60;88.50;;;;;;6134037;23;20418;-84
2022/04/08 09:58:17;;;;;;;3.40;2.83;;;11.10;87.50;;;;;;6129648;23;20467;-85
2022/04/08 10:00:58;;;;;;;6.00;4.07;;;10.70;87.70;;;;;;6127886;23;20434;-84
2022/04/08 10:03:41;;;;;;;4.80;3.80;;;11.20;86.50;;;;;;6128207;23;20454;-83
2022/04/08 10:06:49;;;;;;;6.50;3.80;;;11.20;86.20;;;;;;6130641;23;20556;-84
2022/04/08 10:09:27;;;;;;;4.77;3.90;;;11.00;86.00;;;;;;6150355;23;20453;-84
2022/04/08 10:12:43;;;;;;;6.77;4.27;;;11.10;86.30;;;;;;6123935;23;20409;-82
2022/04/08 10:15:42;;;;;;;5.23;4.10;;;10.80;87.30;;;;;;6109612;23;20803;-85
2022/04/08 10:18:21;;;;;;;4.67;4.17;;;11.00;87.00;;;;;;6124812;23;20445;-83
2022/04/08 10:21:52;;;;;;;6.33;3.83;;;10.80;87.40;;;;;;6126941;23;20419;-84
2022/04/08 10:24:36;;;;;;;6.20;4.70;;;10.50;88.90;;;;;;6108005;23;20582;-83
2022/04/08 10:27:34;;;;;;;5.67;4.20;;;10.20;90.30;;;;;;6151134;23;20450;-84
2022/04/08 10:30:35;;;;;;;4.20;3.80;;;10.50;90.60;;;;;;6125169;23;20418;-83
2022/04/08 10:33:25;;;;;;;5.63;4.10;;;10.90;89.20;;;;;;6153903;23;20438;-85
2022/04/08 10:36:17;;;;;;;5.27;4.50;;;10.80;89.70;;;;;;6129211;23;20414;-84
2022/04/08 10:39:28;;;;;;;8.97;4.33;;;10.70;89.30;;;;;;6129260;23;20463;-86
2022/04/08 10:42:31;;;;;;;5.00;4.43;;;10.60;90.00;;;;;;6115677;23;20421;-84
2022/04/08 10:45:21;;;;;;;4.23;3.90;;;10.70;90.20;;;;;;6125915;23;20439;-83
2022/04/08 10:48:11;;;;;;;6.00;5.17;;;10.60;90.20;;;;;;6126447;23;20434;-85
2022/04/08 10:51:21;;;;;;;6.40;5.80;;;10.60;90.20;;;;;;6132369;23;21144;-84
2022/04/08 10:57:49;;;;;;;6.37;5.53;;;10.20;91.80;;;;;;6149100;23;20481;-85
2022/04/08 11:00:51;;;;;;;5.00;4.60;;;10.10;92.60;;;;;;6132363;23;20430;-84
2022/04/08 11:04:07;;;;;;;6.33;5.73;;;10.30;92.10;;;;;;6129728;23;20439;-82
2022/04/08 11:07:03;;;;;;;8.70;6.00;;;10.20;91.90;;;;;;6134081;23;20457;-83
2022/04/08 11:09:56;;;;;;;6.93;5.40;;;10.10;92.20;;;;;;6131060;23;21062;-84
2022/04/08 11:12:59;;;;;;;5.60;5.07;;;10.40;92.50;;;;;;6136122;23;20480;-83
2022/04/08 11:15:49;;;;;;;8.20;5.20;;;10.60;92.00;;;;;;6130061;23;20403;-84
2022/04/08 11:18:44;;;;;;;15.00;12.03;;;10.90;91.40;;;;;;6164318;23;20461;-86
2022/04/08 11:21:39;;;;;;;6.73;5.23;;;10.90;91.10;;;;;;6193174;23;20417;-85
2022/04/08 11:24:20;;;;;;;7.70;5.80;;;10.80;91.40;;;;;;6177184;23;21132;-81
2022/04/08 11:27:17;;;;;;;5.00;4.53;;;11.00;91.60;;;;;;6166037;23;20430;-81
2022/04/08 11:29:50;;;;;;;5.87;4.77;;;10.70;91.70;;;;;;6121789;23;20447;-80
2022/04/08 11:33:12;;;;;;;8.00;4.40;;;10.50;91.90;;;;;;6144584;23;20442;-83
2022/04/08 11:36:08;;;;;;;6.63;4.53;;;10.60;92.50;;;;;;6121942;23;20414;-82
2022/04/08 11:38:52;;;;;;;5.17;4.60;;;11.20;91.40;;;;;;6120922;23;20421;-84
2022/04/08 11:41:33;;;;;;;5.10;4.30;;;11.30;90.70;;;;;;6121743;23;20469;-83
2022/04/08 11:47:40;;;;;;;6.13;4.63;;;11.10;90.90;;;;;;6150684;23;20438;-82
2022/04/08 11:50:29;;;;;;;7.40;4.80;;;10.90;91.30;;;;;;6126695;23;20390;-84
2022/04/08 11:53:30;;;;;;;4.90;4.40;;;10.50;92.30;;;;;;6100877;23;20407;-84
2022/04/08 11:59:36;;;;;;;5.30;4.50;;;10.40;93.30;;;;;;6227718;23;20471;-82
2022/04/08 12:02:31;;;;;;;8.60;7.70;;;10.40;93.30;;;;;;6192361;23;20488;-83
2022/04/08 12:12:27;;;;;;;9.10;5.77;;;10.60;93.10;;;;;;6211285;23;20401;-85
2022/04/08 12:15:14;;;;;;;8.33;5.80;;;10.30;93.50;;;;;;6189517;23;20388;-81
2022/04/08 12:18:11;;;;;;;6.30;5.20;;;10.30;93.40;;;;;;6217322;23;20405;-84
2022/04/08 12:21:35;;;;;;;6.10;5.00;;;10.40;93.30;;;;;;6216303;23;20427;-85
2022/04/08 12:25:11;;;;;;;;;;;;;;;;;;;;;
2022/04/08 12:37:42;;;;;;;5.03;4.30;;;10.80;90.50;;;;;;6177743;22;20447;-81
2022/04/08 12:40:26;;;;;;;8.63;5.27;;;11.20;89.30;;;;;;6228182;22;20411;-87
2022/04/08 12:43:02;;;;;;;6.63;4.63;;;11.10;89.40;;;;;;6227985;22;20409;-85
2022/04/08 12:45:37;;;;;;;6.20;5.13;;;10.90;90.10;;;;;;6217966;23;20447;-84
2022/04/08 12:48:21;;;;;;;5.10;4.63;;;10.70;90.50;;;;;;6188200;23;20417;-82
2022/04/08 12:50:52;;;;;;;7.33;4.80;;;10.50;90.80;;;;;;6169642;23;20471;-83
2022/04/08 12:53:23;;;;;;;7.47;5.40;;;10.50;90.90;;;;;;6185715;23;20734;-82
2022/04/08 12:56:08;;;;;;;9.37;5.73;;;10.50;91.00;;;;;;6187886;23;20423;-81
2022/04/08 12:59:00;;;;;;;5.30;4.90;;;10.40;91.10;;;;;;6189535;23;20409;-82
2022/04/08 13:01:37;;;;;;;6.67;4.90;;;10.40;91.10;;;;;;6222398;23;20421;-86
2022/04/08 13:04:32;;;;;;;7.43;4.80;;;10.40;91.10;;;;;;6201734;23;20472;-83
2022/04/08 13:07:27;;;;;;;8.10;4.97;;;10.50;91.10;;;;;;6142418;23;20467;-81
2022/04/08 13:10:00;;;;;;;9.97;5.03;;;10.70;90.80;;;;;;6196867;23;20413;-84
2022/04/08 13:13:50;;;;;;;4.63;3.47;;;10.90;90.40;;;;;;6157505;23;20388;-83
2022/04/08 13:16:21;;;;;;;4.13;3.60;;;11.40;91.10;;;;;;6107230;23;20774;-82
2022/04/08 13:19:22;;;;;;;7.60;5.20;;;11.20;91.60;;;;;;6191295;23;20479;-81
2022/04/08 13:22:03;;;;;;;3.97;3.53;;;11.00;91.60;;;;;;6205774;23;20425;-80
2022/04/08 13:24:57;;;;;;;5.57;3.90;;;10.80;90.40;;;;;;6192471;23;20440;-82
2022/04/08 13:27:42;;;;;;;6.90;4.30;;;11.30;91.20;;;;;;6215706;23;20449;-80
2022/04/08 13:30:28;;;;;;;4.23;3.80;;;11.00;90.80;;;;;;6215895;23;20507;-82
2022/04/08 13:33:04;;;;;;;4.73;3.53;;;11.00;91.10;;;;;;6216345;23;21357;-83
2022/04/08 13:36:09;;;;;;;3.50;3.20;;;10.70;91.50;;;;;;6188738;23;20417;-83
2022/04/08 13:38:44;;;;;;;4.97;3.50;;;10.40;92.20;;;;;;6199462;23;20431;-84
2022/04/08 13:41:22;;;;;;;7.00;4.10;;;10.40;92.60;;;;;;6190044;23;20417;-81
2022/04/08 13:44:02;;;;;;;5.37;3.80;;;10.40;92.80;;;;;;6189575;23;20453;-84
2022/04/08 13:46:50;;;;;;;5.00;3.77;;;10.40;92.80;;;;;;6222407;23;20466;-84
2022/04/08 13:49:25;;;;;;;7.20;3.53;;;10.30;93.20;;;;;;6191046;23;20867;-82
2022/04/08 13:51:59;;;;;;;4.20;3.20;;;10.30;93.20;;;;;;6189814;23;20416;-83
2022/04/08 13:54:37;;;;;;;4.90;3.40;;;10.30;93.10;;;;;;6188703;23;20420;-82
2022/04/08 13:57:06;;;;;;;4.83;3.47;;;10.30;93.10;;;;;;6188021;23;20483;-84
2022/04/08 13:59:40;;;;;;;4.50;3.27;;;10.40;92.70;;;;;;6187451;23;20420;-83
2022/04/08 14:02:14;;;;;;;7.13;3.53;;;10.30;92.90;;;;;;6189540;23;20443;-82
2022/04/08 14:04:45;;;;;;;5.87;3.40;;;10.30;92.80;;;;;;6189582;23;20447;-84
2022/04/08 14:07:27;;;;;;;6.33;3.93;;;10.30;92.80;;;;;;6190981;23;20525;-83
2022/04/08 14:10:06;;;;;;;6.60;3.50;;;10.50;92.80;;;;;;6214793;23;20420;-85
2022/04/08 14:12:53;;;;;;;3.70;3.40;;;10.80;92.20;;;;;;6215458;23;20417;-82
2022/04/08 14:15:49;;;;;;;4.43;2.93;;;11.00;92.00;;;;;;6191095;23;20421;-83
2022/04/08 14:18:22;;;;;;;4.97;3.27;;;11.20;91.00;;;;;;6188891;23;20441;-83
2022/04/08 14:21:11;;;;;;;5.30;3.40;;;11.20;90.70;;;;;;6190563;23;20844;-83
2022/04/08 14:23:48;;;;;;;4.70;2.73;;;11.00;90.90;;;;;;6193961;23;20433;-82
2022/04/08 14:26:33;;;;;;;4.03;2.80;;;10.80;90.80;;;;;;6191898;23;20412;-84
2022/04/08 14:29:09;;;;;;;3.47;2.70;;;10.70;91.40;;;;;;6190442;23;20558;-84
2022/04/08 14:31:48;;;;;;;4.93;2.80;;;10.70;91.40;;;;;;6215106;23;20416;-85
2022/04/08 14:34:27;;;;;;;3.93;3.27;;;10.60;91.60;;;;;;6192641;23;20425;-84
2022/04/08 14:36:59;;;;;;;5.07;3.63;;;10.50;92.10;;;;;;6191538;23;20548;-84
2022/04/08 14:39:39;;;;;;;3.20;2.57;;;10.50;92.60;;;;;;6191358;23;20452;-85
2022/04/08 14:42:11;;;;;;;2.67;2.33;;;10.50;92.50;;;;;;6197640;23;20488;-82
2022/04/08 14:44:46;;;;;;;2.27;2.00;;;10.50;92.20;;;;;;6230779;23;20448;-83
2022/04/08 14:47:16;;;;;;;3.43;2.67;;;10.40;91.50;;;;;;6191024;23;20433;-84
2022/04/08 14:49:58;;;;;;;4.37;3.00;;;10.30;91.80;;;;;;6216209;23;20423;-83
2022/04/08 14:53:16;;;;;;;5.00;3.20;;;10.10;92.00;;;;;;6192945;23;20413;-86
2022/04/08 14:56:08;;;;;;;2.97;2.67;;;10.30;92.60;;;;;;6186458;23;20491;-85
2022/04/08 14:58:42;;;;;;;2.50;2.30;;;10.30;92.80;;;;;;6191311;23;20463;-84
2022/04/08 15:01:25;;;;;;;1.53;1.43;;;10.30;92.50;;;;;;6194402;23;20405;-82
2022/04/08 15:03:59;;;;;;;2.00;1.80;;;10.20;92.40;;;;;;6216047;23;20448;-83
2022/04/08 15:06:40;;;;;;;1.53;1.43;;;9.70;93.80;;;;;;6189119;23;20404;-83
2022/04/08 15:09:13;;;;;;;2.73;1.60;;;9.60;94.70;;;;;;6188012;23;20476;-83
2022/04/08 15:11:44;;;;;;;4.10;1.50;;;9.80;94.30;;;;;;6189855;23;20481;-85
2022/04/08 15:14:16;;;;;;;2.90;1.40;;;9.70;94.20;;;;;;6189372;23;20506;-83
2022/04/08 15:16:48;;;;;;;4.30;2.13;;;9.70;94.50;;;;;;6212144;23;20615;-83
2022/04/08 15:19:18;;;;;;;1.27;1.17;;;9.70;94.50;;;;;;6212852;23;21067;-83
2022/04/08 15:21:55;;;;;;;1.87;1.77;;;9.70;93.80;;;;;;6213776;23;20412;-81
2022/04/08 15:24:50;;;;;;;2.07;1.50;;;9.80;93.60;;;;;;6192365;23;20767;-84
2022/04/08 15:27:17;;;;;;;2.07;1.87;;;9.70;93.30;;;;;;6213257;23;20433;-83
2022/04/08 15:29:57;;;;;;;2.37;1.80;;;9.50;93.40;;;;;;6157955;23;20410;-84
2022/04/08 15:32:29;;;;;;;3.73;1.77;;;9.60;92.60;;;;;;6158531;23;20421;-83
2022/04/08 15:34:56;;;;;;;2.17;1.43;;;9.40;92.70;;;;;;6183117;23;20430;-83
2022/04/08 15:37:42;;;;;;;;;;;;;;;;;;;;;
2022/04/08 15:40:26;;;;;;;4.60;2.37;;;9.30;93.30;;;;;;6183185;23;20451;-82
2022/04/08 15:43:23;;;;;;;4.37;2.03;;;9.40;93.20;;;;;;6158214;23;20414;-84
2022/04/08 15:46:02;;;;;;;6.97;1.83;;;9.50;93.20;;;;;;6155295;23;20470;-83
2022/04/08 15:48:57;;;;;;;2.40;2.10;;;9.60;92.80;;;;;;6156493;23;20434;-84
2022/04/08 15:51:27;;;;;;;5.90;3.27;;;9.40;93.00;;;;;;6157292;23;20549;-83
2022/04/08 15:54:01;;;;;;;2.33;1.90;;;9.30;93.20;;;;;;6156716;23;20410;-82
2022/04/08 15:56:31;;;;;;;2.43;1.60;;;9.50;93.40;;;;;;6160150;23;20589;-84
2022/04/08 15:59:03;;;;;;;2.83;1.97;;;9.50;93.20;;;;;;6159987;23;20419;-83
2022/04/08 16:01:40;;;;;;;5.13;2.20;;;9.60;93.30;;;;;;6160808;23;20448;-83
2022/04/08 16:04:13;;;;;;;2.63;1.80;;;9.60;93.50;;;;;;6184917;23;20442;-85
2022/04/08 16:07:03;;;;;;;6.23;2.17;;;9.60;93.50;;;;;;6156685;23;20428;-83
2022/04/08 16:09:43;;;;;;;2.23;1.60;;;9.80;93.00;;;;;;6161247;23;20409;-84
2022/04/08 16:12:21;;;;;;;5.47;2.30;;;9.80;93.00;;;;;;6157412;23;20420;-82
2022/04/08 16:14:54;;;;;;;1.87;1.53;;;9.80;93.30;;;;;;6187431;23;20441;-82
2022/04/08 16:17:33;;;;;;;3.30;1.73;;;10.00;92.10;;;;;;6163730;23;20429;-83
2022/04/08 16:20:11;;;;;;;2.20;1.67;;;9.80;92.50;;;;;;6173149;23;20440;-86
2022/04/08 16:22:48;;;;;;;1.53;1.43;;;9.70;93.00;;;;;;6164886;23;20409;-84
2022/04/08 16:25:27;;;;;;;1.73;1.60;;;9.60;93.30;;;;;;6167279;23;20475;-84
2022/04/08 16:28:14;;;;;;;1.40;1.20;;;9.50;94.00;;;;;;6167298;23;20464;-83
2022/04/08 16:30:48;;;;;;;3.60;1.97;;;9.40;94.30;;;;;;6144053;23;20437;-84
2022/04/08 16:33:28;;;;;;;3.07;2.00;;;9.50;94.20;;;;;;6164499;23;20405;-83
2022/04/08 16:36:00;;;;;;;2.13;1.93;;;9.70;93.90;;;;;;6164168;23;20434;-83
2022/04/08 16:38:41;;;;;;;3.23;1.40;;;9.60;93.80;;;;;;6193199;23;20947;-84
2022/04/08 16:44:33;;;;;;;1.60;1.50;;;9.40;94.30;;;;;;6185760;23;20415;-83
2022/04/08 16:47:20;;;;;;;3.10;1.60;;;9.40;94.30;;;;;;6163554;23;20496;-84
2022/04/08 16:49:55;;;;;;;1.87;1.47;;;9.30;94.30;;;;;;6194614;23;20432;-84
2022/04/08 16:52:48;;;;;;;4.37;2.27;;;9.40;94.10;;;;;;6172418;23;20429;-84
2022/04/08 17:12:07;;;;;;;2.53;1.53;;;9.30;94.00;;;;;;6148323;23;20391;-84
2022/04/08 17:14:59;;;;;;;2.17;1.87;;;9.20;94.20;;;;;;6128914;23;20391;-82
2022/04/08 17:17:56;;;;;;;2.40;2.07;;;9.10;94.40;;;;;;6150464;23;20421;-86
2022/04/08 17:20:47;;;;;;;3.73;2.53;;;9.10;94.70;;;;;;6152392;23;20434;-84
2022/04/08 17:23:33;;;;;;;3.03;2.63;;;9.00;94.90;;;;;;6118785;23;20836;-82
2022/04/08 17:26:04;;;;;;;2.83;2.07;;;8.90;95.10;;;;;;6135502;23;20443;-82
2022/04/08 17:28:50;;;;;;;3.80;2.90;;;8.80;95.50;;;;;;6157911;23;20518;-83
2022/04/08 17:31:57;;;;;;;4.97;2.33;;;8.90;95.70;;;;;;6161083;23;20411;-84
2022/04/08 17:35:07;;;;;;;2.83;1.97;;;9.00;95.50;;;;;;6105281;23;20540;-83